createdAt,value
2022-11-26T00:03:17.192Z,100849.94
2022-11-26T00:08:29.786Z,100854.91
2022-11-26T00:13:31.516Z,100854.53
2022-11-26T00:18:33.101Z,100859.63
2022-11-26T00:23:34.729Z,100860.84
2022-11-26T00:28:38.106Z,100871.97
2022-11-26T00:33:39.925Z,100875.63
2022-11-26T00:38:41.687Z,100873.19
2022-11-26T00:43:43.574Z,100884.94
2022-11-26T00:48:45.430Z,100892.59
2022-11-26T00:53:47.883Z,100901.81
2022-11-26T00:58:50.597Z,100896.72
2022-11-26T01:03:52.376Z,100902.03
2022-11-26T01:08:53.964Z,100909.09
2022-11-26T01:13:55.676Z,100916.59
2022-11-26T01:18:59.482Z,100921.34
2022-11-26T01:24:01.118Z,100930.28
2022-11-26T01:29:02.952Z,100930.19
2022-11-26T01:34:04.517Z,100925.34
2022-11-26T01:39:17.695Z,100921.44
2022-11-26T01:44:25.281Z,100932.91
2022-11-26T01:49:33.117Z,100938.41
2022-11-26T01:54:37.138Z,100940.00
2022-11-26T01:59:41.204Z,100950.28
2022-11-26T02:05:11.323Z,100952.47
2022-11-26T02:10:13.666Z,100959.75
2022-11-26T02:15:15.429Z,100962.91
2022-11-26T02:20:26.030Z,100960.97
2022-11-26T02:25:58.223Z,100968.38
2022-11-26T02:31:08.330Z,100975.38
2022-11-26T02:36:14.779Z,100985.22
2022-11-26T02:41:16.350Z,100985.84
2022-11-26T02:46:19.493Z,100998.06
2022-11-26T02:51:24.170Z,101000.53
2022-11-26T02:56:27.871Z,101000.88
2022-11-26T03:01:31.883Z,101003.09
2022-11-26T03:06:34.893Z,101014.59
2022-11-26T03:11:36.569Z,101018.13
2022-11-26T03:16:38.372Z,101016.53
2022-11-26T03:21:39.952Z,101028.22
2022-11-26T03:26:41.498Z,101038.66
2022-11-26T03:31:43.263Z,101039.25
2022-11-26T03:36:44.878Z,101050.41
2022-11-26T03:41:46.474Z,101054.44
2022-11-26T03:46:48.018Z,101066.91
2022-11-26T03:51:49.549Z,101070.91
2022-11-26T03:56:51.134Z,101067.75
2022-11-26T04:01:52.997Z,101068.97
2022-11-26T04:06:54.659Z,101071.81
2022-11-26T04:11:56.281Z,101083.94
2022-11-26T04:16:57.928Z,101084.25
2022-11-26T04:21:59.578Z,101077.69
2022-11-26T04:27:01.202Z,101088.75
2022-11-26T04:32:04.237Z,101100.16
2022-11-26T04:37:05.829Z,101107.34
2022-11-26T04:42:07.377Z,101106.16
2022-11-26T04:47:08.936Z,101114.22
2022-11-26T04:52:10.787Z,101123.03
2022-11-26T04:57:12.449Z,101132.00
2022-11-26T05:02:14.629Z,101138.94
2022-11-26T05:07:16.313Z,101149.88
2022-11-26T05:12:17.868Z,101154.13
2022-11-26T05:17:19.414Z,101158.63
2022-11-26T05:22:20.939Z,101165.03
2022-11-26T05:27:22.584Z,101178.25
2022-11-26T05:32:24.270Z,101182.97
2022-11-26T05:37:25.857Z,101181.88
2022-11-26T05:42:27.384Z,101188.81
2022-11-26T05:47:28.931Z,101183.25
2022-11-26T05:52:30.630Z,101193.81
2022-11-26T05:57:32.214Z,101200.84
2022-11-26T06:02:33.956Z,101207.25
2022-11-26T06:07:45.059Z,101210.16
2022-11-26T06:12:46.816Z,101219.25
2022-11-26T06:17:48.428Z,101229.81
2022-11-26T06:22:49.973Z,101226.91
2022-11-26T06:27:52.194Z,101232.38
2022-11-26T06:32:54.028Z,101242.19
2022-11-26T06:37:55.841Z,101245.47
2022-11-26T06:42:57.390Z,101254.34
2022-11-26T06:47:58.994Z,101257.13
2022-11-26T06:53:00.539Z,101274.50
2022-11-26T06:58:02.099Z,101275.34
2022-11-26T07:03:03.777Z,101278.13
2022-11-26T07:08:05.442Z,101288.13
2022-11-26T07:13:07.054Z,101297.81
2022-11-26T07:18:08.639Z,101305.22
2022-11-26T07:23:10.284Z,101307.63
2022-11-26T07:28:11.836Z,101309.19
2022-11-26T07:33:13.399Z,101319.41
2022-11-26T07:38:14.952Z,101322.44
2022-11-26T07:43:16.494Z,101323.03
2022-11-26T07:48:18.044Z,101329.84
2022-11-26T07:53:19.621Z,101337.41
2022-11-26T07:58:21.878Z,101335.84
2022-11-26T08:03:23.439Z,101343.34
2022-11-26T08:08:25.029Z,101346.13
2022-11-26T08:13:26.574Z,101354.75
2022-11-26T08:18:28.327Z,101361.28
2022-11-26T08:23:31.307Z,101362.66
2022-11-26T08:28:32.851Z,101364.88
2022-11-26T08:33:35.150Z,101368.28
2022-11-26T08:38:37.642Z,101369.31
2022-11-26T08:44:05.245Z,101378.50
2022-11-26T08:49:01.135Z,101380.28
2022-11-26T08:54:02.849Z,101383.47
2022-11-26T08:59:04.494Z,101383.63
2022-11-26T09:04:06.133Z,101395.31
2022-11-26T09:09:15.174Z,101396.78
2022-11-26T09:14:19.891Z,101404.47
2022-11-26T09:19:22.376Z,101411.28
2022-11-26T09:24:24.030Z,101416.41
2022-11-26T09:29:25.736Z,101413.00
2022-11-26T09:34:27.374Z,101410.81
2022-11-26T09:39:29.345Z,101420.19
2022-11-26T09:44:37.208Z,101420.47
2022-11-26T09:50:15.974Z,101423.63
2022-11-26T09:55:29.145Z,101423.88
2022-11-26T10:00:33.865Z,101430.44
2022-11-26T10:05:50.332Z,101432.97
2022-11-26T10:10:58.793Z,101440.38
2022-11-26T10:16:15.291Z,101443.66
2022-11-26T10:21:58.240Z,101441.03
2022-11-26T10:27:09.405Z,101437.78
2022-11-26T10:32:20.794Z,101447.50
2022-11-26T10:37:24.529Z,101453.94
2022-11-26T10:42:26.104Z,101451.97
2022-11-26T10:47:31.686Z,101452.47
2022-11-26T10:52:33.951Z,101465.06
2022-11-26T10:57:37.422Z,101472.84
2022-11-26T11:02:41.081Z,101472.91
2022-11-26T11:07:44.029Z,101475.19
2022-11-26T11:12:50.941Z,101482.84
2022-11-26T11:18:07.399Z,101478.72
2022-11-26T11:23:11.702Z,101479.31
2022-11-26T11:28:16.753Z,101485.97
2022-11-26T11:33:24.356Z,101490.13
2022-11-26T11:38:28.194Z,101499.91
2022-11-26T11:43:35.298Z,101499.66
2022-11-26T11:49:05.870Z,101503.44
2022-11-26T11:54:22.135Z,101501.72
2022-11-26T11:59:58.374Z,101500.41
2022-11-26T12:05:24.933Z,101501.88
2022-11-26T12:11:12.916Z,101500.41
2022-11-26T12:16:16.452Z,101498.31
2022-11-26T12:21:26.500Z,101496.31
2022-11-26T12:26:33.067Z,101500.09
2022-11-26T12:31:54.096Z,101499.50
2022-11-26T12:37:26.717Z,101496.31
2022-11-26T12:42:33.103Z,101508.63
2022-11-26T12:47:38.969Z,101501.19
2022-11-26T12:52:54.728Z,101507.53
2022-11-26T12:58:10.317Z,101504.22
2022-11-26T13:03:17.065Z,101513.59
2022-11-26T13:08:36.760Z,101517.88
2022-11-26T13:13:42.072Z,101507.78
2022-11-26T13:18:48.049Z,101505.84
2022-11-26T13:24:08.006Z,101519.22
2022-11-26T13:29:28.940Z,101522.88
2022-11-26T13:34:51.686Z,101519.41
2022-11-26T13:40:33.804Z,101520.25
2022-11-26T13:45:56.631Z,101519.03
2022-11-26T13:51:08.319Z,101515.75
2022-11-26T13:56:11.142Z,101511.38
2022-11-26T14:01:36.944Z,101523.06
2022-11-26T14:06:40.340Z,101519.28
2022-11-26T14:11:44.931Z,101532.50
2022-11-26T14:17:01.875Z,101533.25
2022-11-26T14:22:03.792Z,101533.47
2022-11-26T14:27:05.346Z,101538.19
2022-11-26T14:32:15.437Z,101540.81
2022-11-26T14:37:22.458Z,101538.31
2022-11-26T14:42:24.060Z,101530.47
2022-11-26T14:47:25.744Z,101537.09
2022-11-26T14:52:33.758Z,101540.03
2022-11-26T14:57:57.661Z,101541.44
2022-11-26T15:02:59.872Z,101549.50
2022-11-26T15:08:04.317Z,101545.84
2022-11-26T15:13:12.947Z,101535.28
2022-11-26T15:18:15.341Z,101548.34
2022-11-26T15:23:19.025Z,101547.28
2022-11-26T15:28:22.852Z,101548.81
2022-11-26T15:33:25.892Z,101552.34
2022-11-26T15:38:32.594Z,101556.72
2022-11-26T15:43:34.093Z,101550.75
2022-11-26T15:48:51.902Z,101550.78
2022-11-26T15:53:54.736Z,101554.97
2022-11-26T15:59:00.270Z,101560.50
2022-11-26T16:04:06.065Z,101551.28
2022-11-26T16:09:14.749Z,101557.50
2022-11-26T16:14:39.496Z,101556.22
2022-11-26T16:19:51.536Z,101560.78
2022-11-26T16:25:04.023Z,101557.41
2022-11-26T16:30:15.738Z,101557.81
2022-11-26T16:35:44.095Z,101559.53
2022-11-26T16:40:39.011Z,101571.16
2022-11-26T16:45:40.713Z,101577.16
2022-11-26T16:50:42.365Z,101572.34
2022-11-26T16:55:43.945Z,101570.66
2022-11-26T17:00:45.583Z,101581.53
2022-11-26T17:05:47.157Z,101586.47
2022-11-26T17:10:48.784Z,101596.81
2022-11-26T17:15:51.549Z,101603.34
2022-11-26T17:20:53.918Z,101608.25
2022-11-26T17:25:55.811Z,101602.88
2022-11-26T17:30:57.480Z,101612.53
2022-11-26T17:35:59.077Z,101608.34
2022-11-26T17:41:00.638Z,101607.06
2022-11-26T17:46:02.556Z,101605.22
2022-11-26T17:51:04.251Z,101607.63
2022-11-26T17:56:06.173Z,101606.84
2022-11-26T18:01:07.751Z,101615.19
2022-11-26T18:06:15.679Z,101617.22
2022-11-26T18:11:17.269Z,101618.50
2022-11-26T18:16:18.857Z,101624.69
2022-11-26T18:21:20.455Z,101625.22
2022-11-26T18:26:22.057Z,101623.63
2022-11-26T18:31:23.692Z,101627.78
2022-11-26T18:36:25.420Z,101623.84
2022-11-26T18:41:26.980Z,101631.22
2022-11-26T18:46:29.203Z,101632.81
2022-11-26T18:51:30.764Z,101647.56
2022-11-26T18:56:32.290Z,101630.66
2022-11-26T19:01:33.884Z,101638.25
2022-11-26T19:06:36.017Z,101630.88
2022-11-26T19:11:37.551Z,101622.34
2022-11-26T19:16:40.254Z,101624.53
2022-11-26T19:21:42.086Z,101627.66
2022-11-26T19:26:43.666Z,101626.56
2022-11-26T19:31:45.223Z,101625.09
2022-11-26T19:36:48.666Z,101627.41
2022-11-26T19:41:50.504Z,101631.38
2022-11-26T19:46:52.308Z,101637.03
2022-11-26T19:51:55.156Z,101624.66
2022-11-26T19:56:56.791Z,101620.66
2022-11-26T20:01:58.410Z,101624.06
2022-11-26T20:06:59.973Z,101629.31
2022-11-26T20:12:01.495Z,101625.88
2022-11-26T20:17:03.316Z,101628.84
2022-11-26T20:22:05.142Z,101626.00
2022-11-26T20:27:06.796Z,101630.16
2022-11-26T20:32:08.363Z,101633.56
2022-11-26T20:37:09.908Z,101623.75
2022-11-26T20:42:11.901Z,101621.06
2022-11-26T20:47:13.523Z,101618.28
2022-11-26T20:52:15.371Z,101614.81
2022-11-26T20:57:20.631Z,101624.53
2022-11-26T21:02:22.361Z,101619.22
2022-11-26T21:07:23.960Z,101611.31
2022-11-26T21:12:25.648Z,101610.25
2022-11-26T21:17:28.001Z,101611.06
2022-11-26T21:22:29.668Z,101605.25
2022-11-26T21:27:33.596Z,101606.16
2022-11-26T21:32:35.128Z,101619.56
2022-11-26T21:37:36.710Z,101631.28
2022-11-26T21:42:38.363Z,101622.44
2022-11-26T21:47:39.900Z,101625.56
2022-11-26T21:52:41.495Z,101621.72
2022-11-26T21:57:43.069Z,101628.16
2022-11-26T22:02:44.693Z,101624.38
2022-11-26T22:07:46.826Z,101617.09
2022-11-26T22:12:48.695Z,101608.13
2022-11-26T22:17:50.318Z,101618.59
2022-11-26T22:22:51.902Z,101645.16
2022-11-26T22:27:53.435Z,101646.97
2022-11-26T22:32:54.969Z,101663.31
2022-11-26T22:37:56.560Z,101661.34
2022-11-26T22:42:58.870Z,101661.16
2022-11-26T22:48:00.416Z,101663.59
2022-11-26T22:53:01.961Z,101669.59
2022-11-26T22:58:03.500Z,101665.00
2022-11-26T23:03:05.219Z,101662.72
2022-11-26T23:08:06.851Z,101660.38
2022-11-26T23:13:09.072Z,101662.41
2022-11-26T23:18:12.382Z,101661.72
2022-11-26T23:23:14.047Z,101662.50
2022-11-26T23:28:15.612Z,101651.06
2022-11-26T23:33:17.170Z,101652.69
2022-11-26T23:38:18.729Z,101651.44
2022-11-26T23:43:20.400Z,101656.63
2022-11-26T23:48:21.987Z,101652.69
2022-11-26T23:53:23.551Z,101644.16
2022-11-26T23:58:25.097Z,101644.78
